createdAt,value
2019-05-22T00:00:41.012Z,8.35
2019-05-22T00:03:14.941Z,8.10
2019-05-22T00:05:45.588Z,8.13
2019-05-22T00:08:15.883Z,7.78
2019-05-22T00:10:46.543Z,8.33
2019-05-22T00:13:18.360Z,7.72
2019-05-22T00:15:49.415Z,8.30
2019-05-22T00:18:19.635Z,7.67
2019-05-22T00:20:49.209Z,7.28
2019-05-22T00:23:19.527Z,7.53
2019-05-22T00:25:49.160Z,7.65
2019-05-22T00:28:19.414Z,8.08
2019-05-22T00:30:49.272Z,8.20
2019-05-22T00:33:19.463Z,8.08
2019-05-22T00:35:49.896Z,8.00
2019-05-22T00:38:20.658Z,8.55
2019-05-22T00:40:53.125Z,8.88
2019-05-22T00:43:30.715Z,8.75
2019-05-22T00:46:02.917Z,9.30
2019-05-22T00:48:34.203Z,9.70
2019-05-22T00:51:07.864Z,9.35
2019-05-22T00:53:54.881Z,9.48
2019-05-22T00:56:27.962Z,9.10
2019-05-22T00:58:59.783Z,10.93
2019-05-22T01:01:34.213Z,10.40
2019-05-22T01:04:05.263Z,10.82
2019-05-22T01:06:36.227Z,10.23
2019-05-22T01:09:09.597Z,10.18
2019-05-22T01:11:39.614Z,10.23
2019-05-22T01:14:09.565Z,10.23
2019-05-22T01:16:39.574Z,9.95
2019-05-22T01:19:10.920Z,9.03
2019-05-22T01:22:01.934Z,9.53
2019-05-22T01:24:32.978Z,9.68
2019-05-22T01:27:02.532Z,9.70
2019-05-22T01:29:32.947Z,9.40
2019-05-22T01:32:15.964Z,10.38
2019-05-22T01:34:45.778Z,9.43
2019-05-22T01:37:15.965Z,9.83
2019-05-22T01:40:04.885Z,10.25
2019-05-22T01:42:37.908Z,10.55
2019-05-22T01:45:11.498Z,10.32
2019-05-22T01:47:49.131Z,10.63
2019-05-22T01:50:41.270Z,10.43
2019-05-22T01:53:12.170Z,10.78
2019-05-22T01:55:43.571Z,10.65
2019-05-22T01:58:12.804Z,9.80
2019-05-22T02:00:42.198Z,10.00
2019-05-22T02:03:14.197Z,10.40
2019-05-22T02:05:43.519Z,10.45
2019-05-22T02:08:14.233Z,11.57
2019-05-22T02:10:46.026Z,10.88
2019-05-22T02:13:19.844Z,11.50
2019-05-22T02:15:49.194Z,11.83
2019-05-22T02:18:19.357Z,11.53
2019-05-22T02:20:50.053Z,11.00
2019-05-22T02:23:19.937Z,11.10
2019-05-22T02:25:50.420Z,11.28
2019-05-22T02:28:21.845Z,11.97
2019-05-22T02:30:51.849Z,10.72
2019-05-22T02:33:22.338Z,11.15
2019-05-22T02:35:51.597Z,11.55
2019-05-22T02:38:22.316Z,11.03
2019-05-22T02:40:55.254Z,10.95
2019-05-22T02:43:26.267Z,11.78
2019-05-22T02:45:56.239Z,11.35
2019-05-22T02:48:27.833Z,11.08
2019-05-22T02:50:57.122Z,11.70
2019-05-22T02:53:27.115Z,12.82
2019-05-22T02:55:56.150Z,12.03
2019-05-22T02:58:27.253Z,12.73
2019-05-22T03:01:00.012Z,11.35
2019-05-22T03:03:30.620Z,12.43
2019-05-22T03:06:01.124Z,11.63
2019-05-22T03:08:53.438Z,11.90
2019-05-22T03:11:23.611Z,11.35
2019-05-22T03:14:09.376Z,11.40
2019-05-22T03:16:54.299Z,11.63
2019-05-22T03:19:33.688Z,12.00
2019-05-22T03:22:07.574Z,11.22
2019-05-22T03:24:37.867Z,11.85
2019-05-22T03:27:07.371Z,12.65
2019-05-22T03:29:52.549Z,11.93
2019-05-22T03:32:23.353Z,11.73
2019-05-22T03:34:54.505Z,11.48
2019-05-22T03:37:25.009Z,12.03
2019-05-22T03:39:54.207Z,11.95
2019-05-22T03:42:23.443Z,12.20
2019-05-22T03:44:53.961Z,10.95
2019-05-22T03:47:25.321Z,12.35
2019-05-22T03:49:55.306Z,13.08
2019-05-22T03:52:25.649Z,12.58
2019-05-22T03:54:55.804Z,13.48
2019-05-22T03:57:25.579Z,12.95
2019-05-22T03:59:56.870Z,13.28
2019-05-22T04:02:27.034Z,13.32
2019-05-22T04:04:56.802Z,13.60
2019-05-22T04:07:26.585Z,12.85
2019-05-22T04:09:57.198Z,13.28
2019-05-22T04:12:26.868Z,12.68
2019-05-22T04:14:57.063Z,11.53
2019-05-22T04:17:26.695Z,11.73
2019-05-22T04:19:56.263Z,11.45
2019-05-22T04:22:25.474Z,12.82
2019-05-22T04:24:55.277Z,11.78
2019-05-22T04:27:24.504Z,13.03
2019-05-22T04:29:54.029Z,12.68
2019-05-22T04:32:27.456Z,14.70
2019-05-22T04:34:57.644Z,14.78
2019-05-22T04:37:27.545Z,15.10
2019-05-22T04:40:15.945Z,14.45
2019-05-22T04:42:45.155Z,15.45
2019-05-22T04:45:15.651Z,16.20
2019-05-22T04:48:02.782Z,14.73
2019-05-22T04:50:32.440Z,13.20
2019-05-22T04:53:01.871Z,13.25
2019-05-22T04:55:32.870Z,13.68
2019-05-22T04:58:06.939Z,13.30
2019-05-22T05:00:36.867Z,12.18
2019-05-22T05:03:06.869Z,11.70
2019-05-22T05:05:50.311Z,11.85
2019-05-22T05:08:19.450Z,11.70
2019-05-22T05:10:50.608Z,11.83
2019-05-22T05:13:20.207Z,11.50
2019-05-22T05:15:49.184Z,11.75
2019-05-22T05:18:18.560Z,11.45
2019-05-22T05:20:47.517Z,10.35
2019-05-22T05:23:16.768Z,11.03
2019-05-22T05:25:45.977Z,10.98
2019-05-22T05:28:15.979Z,11.30
2019-05-22T05:30:44.939Z,11.00
2019-05-22T05:33:14.465Z,10.93
2019-05-22T05:35:44.313Z,10.93
2019-05-22T05:38:13.988Z,12.07
2019-05-22T05:40:43.557Z,12.13
2019-05-22T05:43:15.045Z,11.78
2019-05-22T05:45:46.932Z,13.05
2019-05-22T05:48:19.318Z,12.18
2019-05-22T05:51:06.273Z,12.98
2019-05-22T05:53:39.967Z,13.72
2019-05-22T05:56:16.681Z,12.68
2019-05-22T05:58:46.472Z,12.88
2019-05-22T06:01:22.125Z,13.58
2019-05-22T06:03:51.628Z,12.55
2019-05-22T06:06:28.247Z,12.30
2019-05-22T06:09:02.305Z,13.48
2019-05-22T06:11:34.498Z,13.88
2019-05-22T06:14:06.375Z,12.90
2019-05-22T06:16:51.065Z,13.32
2019-05-22T06:19:20.783Z,12.58
2019-05-22T06:21:50.935Z,13.13
2019-05-22T06:24:37.194Z,12.70
2019-05-22T06:27:15.901Z,12.45
2019-05-22T06:29:57.481Z,13.15
2019-05-22T06:32:52.621Z,11.93
2019-05-22T06:35:22.299Z,13.35
2019-05-22T06:38:00.791Z,13.45
2019-05-22T06:40:30.630Z,12.68
2019-05-22T06:43:24.240Z,11.50
2019-05-22T06:45:54.265Z,12.65
2019-05-22T06:48:23.490Z,12.63
2019-05-22T06:50:53.166Z,12.65
2019-05-22T06:53:23.082Z,12.47
2019-05-22T06:55:52.336Z,11.30
2019-05-22T06:58:21.792Z,11.00
2019-05-22T07:00:51.029Z,12.13
2019-05-22T07:03:20.650Z,10.93
2019-05-22T07:05:50.309Z,11.88
2019-05-22T07:08:20.203Z,11.63
2019-05-22T07:10:49.193Z,11.90
2019-05-22T07:13:19.836Z,11.88
2019-05-22T07:15:50.275Z,11.88
2019-05-22T07:18:20.623Z,11.33
2019-05-22T07:20:50.214Z,11.65
2019-05-22T07:23:21.448Z,11.57
2019-05-22T07:25:52.374Z,11.95
2019-05-22T07:28:23.206Z,11.22
2019-05-22T07:30:52.666Z,11.18
2019-05-22T07:33:23.817Z,11.05
2019-05-22T07:36:12.057Z,10.72
2019-05-22T07:38:24.625Z,11.30
2019-05-22T07:40:54.191Z,10.93
2019-05-22T07:43:23.234Z,9.88
2019-05-22T07:45:53.627Z,10.90
2019-05-22T07:48:25.336Z,10.68
2019-05-22T07:50:55.435Z,10.18
2019-05-22T07:53:26.328Z,9.60
2019-05-22T07:55:57.623Z,9.73
2019-05-22T07:58:29.680Z,10.05
2019-05-22T08:01:01.591Z,8.95
2019-05-22T08:03:33.067Z,9.03
2019-05-22T08:06:02.757Z,8.83
2019-05-22T08:08:33.369Z,8.75
2019-05-22T08:11:03.011Z,10.20
2019-05-22T08:13:33.109Z,10.08
2019-05-22T08:16:03.791Z,8.75
2019-05-22T08:18:34.986Z,8.93
2019-05-22T08:21:04.578Z,8.38
2019-05-22T08:23:34.407Z,9.30
2019-05-22T08:26:04.661Z,8.15
2019-05-22T08:28:33.961Z,7.70
2019-05-22T08:31:05.384Z,8.25
2019-05-22T08:33:36.485Z,7.95
2019-05-22T08:36:06.757Z,8.08
2019-05-22T08:38:36.736Z,11.12
2019-05-22T08:41:10.909Z,8.28
2019-05-22T08:44:11.282Z,8.68
2019-05-22T08:46:12.986Z,8.30
2019-05-22T08:48:47.759Z,7.83
2019-05-22T08:51:15.894Z,7.65
2019-05-22T08:53:48.149Z,7.42
2019-05-22T08:56:18.176Z,7.92
2019-05-22T08:58:48.532Z,7.65
2019-05-22T09:01:17.543Z,6.35
2019-05-22T09:03:46.920Z,6.65
2019-05-22T09:06:16.495Z,6.85
2019-05-22T09:08:46.062Z,7.25
2019-05-22T09:11:15.498Z,6.60
2019-05-22T09:13:44.545Z,6.47
2019-05-22T09:16:14.548Z,6.45
2019-05-22T09:18:44.009Z,5.87
2019-05-22T09:21:13.338Z,6.70
2019-05-22T09:23:42.924Z,5.55
2019-05-22T09:26:12.846Z,5.90
2019-05-22T09:28:42.124Z,4.95
2019-05-22T09:31:11.229Z,5.30
2019-05-22T09:33:40.510Z,5.37
2019-05-22T09:36:10.403Z,4.90
2019-05-22T09:38:39.490Z,5.53
2019-05-22T09:41:09.050Z,5.00
2019-05-22T09:43:39.004Z,4.70
2019-05-22T09:46:09.294Z,4.60
2019-05-22T09:48:38.785Z,4.80
2019-05-22T09:51:07.837Z,4.65
2019-05-22T09:53:38.398Z,4.50
2019-05-22T09:56:07.712Z,4.80
2019-05-22T09:58:36.907Z,4.45
2019-05-22T10:01:11.552Z,4.72
2019-05-22T10:03:38.936Z,5.33
2019-05-22T10:06:08.306Z,5.03
2019-05-22T10:08:37.975Z,5.08
2019-05-22T10:11:07.482Z,5.92
2019-05-22T10:13:37.095Z,5.55
2019-05-22T10:16:06.682Z,5.22
2019-05-22T10:18:35.828Z,5.12
2019-05-22T10:21:05.473Z,5.47
2019-05-22T10:23:35.345Z,5.50
2019-05-22T10:26:05.352Z,5.00
2019-05-22T10:28:35.225Z,6.00
2019-05-22T10:31:05.307Z,6.00
2019-05-22T10:33:34.685Z,4.90
2019-05-22T10:36:04.064Z,4.92
2019-05-22T10:38:33.492Z,5.58
2019-05-22T10:41:02.444Z,5.22
2019-05-22T10:43:31.751Z,4.58
2019-05-22T10:46:01.071Z,5.28
2019-05-22T10:48:30.206Z,4.42
2019-05-22T10:50:59.866Z,5.17
2019-05-22T10:53:33.619Z,4.05
2019-05-22T10:56:00.368Z,4.60
2019-05-22T10:58:30.403Z,3.87
2019-05-22T11:00:59.763Z,4.22
2019-05-22T11:03:29.662Z,3.90
2019-05-22T11:06:06.984Z,3.58
2019-05-22T11:08:34.219Z,3.83
2019-05-22T11:11:01.460Z,3.80
2019-05-22T11:13:34.248Z,3.90
2019-05-22T11:16:02.472Z,3.65
2019-05-22T11:18:31.918Z,3.42
2019-05-22T11:21:01.726Z,3.87
2019-05-22T11:23:31.021Z,4.20
2019-05-22T11:26:00.383Z,3.83
2019-05-22T11:28:31.367Z,3.12
2019-05-22T11:31:00.786Z,3.77
2019-05-22T11:33:34.038Z,3.60
2019-05-22T11:36:01.620Z,2.45
2019-05-22T11:38:32.263Z,2.55
2019-05-22T11:41:01.740Z,4.67
2019-05-22T11:43:30.991Z,5.40
2019-05-22T11:46:00.280Z,4.95
2019-05-22T11:48:30.024Z,4.90
2019-05-22T11:51:01.064Z,5.90
2019-05-22T11:53:30.781Z,7.17
2019-05-22T11:55:59.976Z,7.62
2019-05-22T11:58:29.367Z,8.08
2019-05-22T12:00:58.688Z,8.18
2019-05-22T12:03:30.879Z,7.72
2019-05-22T12:06:00.761Z,7.87
2019-05-22T12:08:30.240Z,7.72
2019-05-22T12:10:59.805Z,8.25
2019-05-22T12:13:30.216Z,7.70
2019-05-22T12:16:00.586Z,7.22
2019-05-22T12:18:30.103Z,7.85
2019-05-22T12:20:59.260Z,7.12
2019-05-22T12:23:29.410Z,7.20
2019-05-22T12:25:58.704Z,7.28
2019-05-22T12:28:28.237Z,7.50
2019-05-22T12:30:58.212Z,7.40
2019-05-22T12:33:27.323Z,6.72
2019-05-22T12:35:56.904Z,7.25
2019-05-22T12:38:27.120Z,7.12
2019-05-22T12:40:57.617Z,6.62
2019-05-22T12:43:30.486Z,6.65
2019-05-22T12:46:00.568Z,5.65
2019-05-22T12:48:30.403Z,4.45
2019-05-22T12:51:00.230Z,4.40
2019-05-22T12:53:31.215Z,4.28
2019-05-22T12:56:00.186Z,4.45
2019-05-22T12:58:29.483Z,4.62
2019-05-22T13:00:59.689Z,4.03
2019-05-22T13:03:30.134Z,4.12
2019-05-22T13:05:59.760Z,6.00
2019-05-22T13:08:29.751Z,6.72
2019-05-22T13:10:59.516Z,7.20
2019-05-22T13:13:28.732Z,6.95
2019-05-22T13:16:00.478Z,7.10
2019-05-22T13:18:30.226Z,7.05
2019-05-22T13:21:00.486Z,8.53
2019-05-22T13:23:34.196Z,7.08
2019-05-22T13:26:05.328Z,8.13
2019-05-22T13:28:37.114Z,6.62
2019-05-22T13:31:07.370Z,7.25
2019-05-22T13:33:38.305Z,6.62
2019-05-22T13:36:09.650Z,7.55
2019-05-22T13:38:39.495Z,7.60
2019-05-22T13:41:09.538Z,8.53
2019-05-22T13:43:38.857Z,8.65
2019-05-22T13:46:08.431Z,8.33
2019-05-22T13:48:38.104Z,8.60
2019-05-22T13:51:08.845Z,8.53
2019-05-22T13:53:38.424Z,8.45
2019-05-22T13:56:09.332Z,8.88
2019-05-22T13:58:38.994Z,8.70
2019-05-22T14:01:08.681Z,9.05
2019-05-22T14:03:38.290Z,8.60
2019-05-22T14:06:07.728Z,8.55
2019-05-22T14:08:37.117Z,8.48
2019-05-22T14:11:07.119Z,8.60
2019-05-22T14:13:36.846Z,8.70
2019-05-22T14:16:06.249Z,9.68
2019-05-22T14:18:35.333Z,8.58
2019-05-22T14:21:04.930Z,7.53
2019-05-22T14:23:34.170Z,7.72
2019-05-22T14:26:03.756Z,7.25
2019-05-22T14:28:34.122Z,7.33
2019-05-22T14:31:03.701Z,6.83
2019-05-22T14:33:32.941Z,6.37
2019-05-22T14:36:03.031Z,6.55
2019-05-22T14:38:32.989Z,7.10
2019-05-22T14:41:02.635Z,6.67
2019-05-22T14:43:31.728Z,6.95
2019-05-22T14:46:01.366Z,7.20
2019-05-22T14:48:30.636Z,6.15
2019-05-22T14:51:00.600Z,6.25
2019-05-22T14:53:30.856Z,6.22
2019-05-22T14:56:00.775Z,6.35
2019-05-22T14:58:30.855Z,5.50
2019-05-22T15:01:00.465Z,5.65
2019-05-22T15:03:30.037Z,5.30
2019-05-22T15:05:59.797Z,5.67
2019-05-22T15:08:28.818Z,5.10
2019-05-22T15:10:58.318Z,4.58
2019-05-22T15:13:27.416Z,5.03
2019-05-22T15:15:56.618Z,4.95
2019-05-22T15:18:25.785Z,5.12
2019-05-22T15:21:06.706Z,4.60
2019-05-22T15:23:36.109Z,4.62
2019-05-22T15:26:05.238Z,5.12
2019-05-22T15:28:35.091Z,4.58
2019-05-22T15:31:04.859Z,4.85
2019-05-22T15:33:34.811Z,5.05
2019-05-22T15:36:06.922Z,4.85
2019-05-22T15:38:39.600Z,4.20
2019-05-22T15:41:11.586Z,4.92
2019-05-22T15:43:43.251Z,4.67
2019-05-22T15:49:05.694Z,4.35
2019-05-22T15:51:35.475Z,4.80
2019-05-22T15:54:06.151Z,4.70
2019-05-22T15:56:37.989Z,5.47
2019-05-22T15:59:10.242Z,4.95
2019-05-22T16:01:41.387Z,4.80
2019-05-22T16:04:12.547Z,5.15
2019-05-22T16:06:42.048Z,4.70
2019-05-22T16:09:14.088Z,4.67
2019-05-22T16:11:45.407Z,5.03
2019-05-22T16:14:16.001Z,4.83
2019-05-22T16:16:48.013Z,5.08
2019-05-22T16:19:19.202Z,5.17
2019-05-22T16:21:48.517Z,4.80
2019-05-22T16:24:17.943Z,4.87
2019-05-22T16:26:48.392Z,4.80
2019-05-22T16:29:18.118Z,4.55
2019-05-22T16:31:48.504Z,4.53
2019-05-22T16:34:18.466Z,5.25
2019-05-22T16:36:47.957Z,4.72
2019-05-22T16:39:17.720Z,4.78
2019-05-22T16:41:47.494Z,5.35
2019-05-22T16:44:17.696Z,4.70
2019-05-22T16:46:48.807Z,4.53
2019-05-22T16:49:18.081Z,4.47
2019-05-22T16:51:53.817Z,4.75
2019-05-22T16:54:23.444Z,5.30
2019-05-22T16:56:53.293Z,4.67
2019-05-22T16:59:22.859Z,5.05
2019-05-22T17:01:59.182Z,4.83
2019-05-22T17:04:23.793Z,4.45
2019-05-22T17:06:53.330Z,4.22
2019-05-22T17:09:23.218Z,5.20
2019-05-22T17:11:52.885Z,5.35
2019-05-22T17:14:23.558Z,4.97
2019-05-22T17:16:53.105Z,5.40
2019-05-22T17:19:27.273Z,5.35
2019-05-22T17:21:54.726Z,5.53
2019-05-22T17:24:23.891Z,4.87
2019-05-22T17:26:53.647Z,5.35
2019-05-22T17:29:23.666Z,5.50
2019-05-22T17:31:53.406Z,5.30
2019-05-22T17:34:31.778Z,5.40
2019-05-22T17:37:04.593Z,6.10
2019-05-22T17:39:36.727Z,5.30
2019-05-22T17:42:08.989Z,5.50
2019-05-22T17:44:40.683Z,5.20
2019-05-22T17:47:11.793Z,4.78
2019-05-22T17:49:41.864Z,4.70
2019-05-22T17:52:12.625Z,5.22
2019-05-22T17:54:42.160Z,5.28
2019-05-22T17:57:11.553Z,5.55
2019-05-22T17:59:41.065Z,5.20
2019-05-22T18:02:11.746Z,5.30
2019-05-22T18:04:40.805Z,5.60
2019-05-22T18:07:10.229Z,5.22
2019-05-22T18:09:39.953Z,4.83
2019-05-22T18:12:09.336Z,5.42
2019-05-22T18:14:38.821Z,4.95
2019-05-22T18:17:08.994Z,5.10
2019-05-22T18:19:38.237Z,5.40
2019-05-22T18:22:09.305Z,4.97
2019-05-22T18:24:38.320Z,4.83
2019-05-22T18:27:07.513Z,4.17
2019-05-22T18:29:36.488Z,6.72
2019-05-22T18:32:06.705Z,5.78
2019-05-22T18:34:35.716Z,5.92
2019-05-22T18:37:05.206Z,5.45
2019-05-22T18:39:34.885Z,5.50
2019-05-22T18:42:04.291Z,5.42
2019-05-22T18:44:33.416Z,5.80
2019-05-22T18:47:03.178Z,5.55
2019-05-22T18:49:32.232Z,5.20
2019-05-22T18:52:01.711Z,5.05
2019-05-22T18:54:30.938Z,5.65
2019-05-22T18:57:00.167Z,5.40
2019-05-22T18:59:29.447Z,4.95
2019-05-22T19:01:58.568Z,5.10
2019-05-22T19:04:27.781Z,5.62
2019-05-22T19:06:57.695Z,5.55
2019-05-22T19:09:27.310Z,4.80
2019-05-22T19:11:56.582Z,4.62
2019-05-22T19:14:25.979Z,5.40
2019-05-22T19:16:55.319Z,5.80
2019-05-22T19:19:28.207Z,5.65
2019-05-22T19:21:56.043Z,7.25
2019-05-22T19:24:25.841Z,7.12
2019-05-22T19:26:55.170Z,6.25
2019-05-22T19:29:24.301Z,6.33
2019-05-22T19:31:53.494Z,5.95
2019-05-22T19:34:22.805Z,6.35
2019-05-22T19:36:51.985Z,6.40
2019-05-22T19:39:21.303Z,5.67
2019-05-22T19:42:02.038Z,5.50
2019-05-22T19:44:22.326Z,5.67
2019-05-22T19:46:51.854Z,5.40
2019-05-22T19:49:21.593Z,5.58
2019-05-22T19:51:51.274Z,5.55
2019-05-22T19:54:20.453Z,6.12
2019-05-22T19:56:49.421Z,5.90
2019-05-22T19:59:19.046Z,6.40
2019-05-22T20:01:48.140Z,6.50
2019-05-22T20:04:17.916Z,7.05
2019-05-22T20:06:47.235Z,7.15
2019-05-22T20:09:17.376Z,6.87
2019-05-22T20:11:46.521Z,7.00
2019-05-22T20:14:16.528Z,6.08
2019-05-22T20:16:45.613Z,6.62
2019-05-22T20:19:15.339Z,6.55
2019-05-22T20:21:45.279Z,6.50
2019-05-22T20:24:14.755Z,6.10
2019-05-22T20:26:44.052Z,6.83
2019-05-22T20:29:15.236Z,7.08
2019-05-22T20:31:44.576Z,6.90
2019-05-22T20:34:14.428Z,7.33
2019-05-22T20:36:43.960Z,6.55
2019-05-22T20:39:15.031Z,6.28
2019-05-22T20:41:44.522Z,6.42
2019-05-22T20:44:15.495Z,7.28
2019-05-22T20:46:46.195Z,6.97
2019-05-22T20:49:15.844Z,7.08
2019-05-22T20:51:45.708Z,7.20
2019-05-22T20:54:15.382Z,7.15
2019-05-22T20:56:47.937Z,6.80
2019-05-22T20:59:18.429Z,7.92
2019-05-22T21:01:49.234Z,7.47
2019-05-22T21:04:20.417Z,6.87
2019-05-22T21:06:55.099Z,7.53
2019-05-22T21:09:24.893Z,8.15
2019-05-22T21:11:54.573Z,7.87
2019-05-22T21:14:24.114Z,8.08
2019-05-22T21:16:54.137Z,7.60
2019-05-22T21:19:23.782Z,8.10
2019-05-22T21:21:56.002Z,7.35
2019-05-22T21:24:25.095Z,7.30
2019-05-22T21:26:54.197Z,7.50
2019-05-22T21:29:24.520Z,7.55
2019-05-22T21:31:53.690Z,7.10
2019-05-22T21:34:23.504Z,6.17
2019-05-22T21:36:53.621Z,5.35
2019-05-22T21:39:23.492Z,6.75
2019-05-22T21:41:53.479Z,5.60
2019-05-22T21:44:22.587Z,5.47
2019-05-22T21:46:53.006Z,5.92
2019-05-22T21:49:24.168Z,6.30
2019-05-22T21:51:54.199Z,5.97
2019-05-22T21:54:23.260Z,7.03
2019-05-22T21:56:52.856Z,5.97
2019-05-22T21:59:22.042Z,5.90
2019-05-22T22:01:52.905Z,4.97
2019-05-22T22:04:24.816Z,5.72
2019-05-22T22:06:55.190Z,5.60
2019-05-22T22:09:25.930Z,4.72
2019-05-22T22:11:57.204Z,5.70
2019-05-22T22:14:26.672Z,5.28
2019-05-22T22:16:56.451Z,5.60
2019-05-22T22:19:26.145Z,5.25
2019-05-22T22:21:56.134Z,4.50
2019-05-22T22:24:26.409Z,4.58
2019-05-22T22:26:56.719Z,5.08
2019-05-22T22:29:26.042Z,4.58
2019-05-22T22:31:58.203Z,4.80
2019-05-22T22:34:33.192Z,5.17
2019-05-22T22:37:03.879Z,5.03
2019-05-22T22:39:34.668Z,5.05
2019-05-22T22:42:04.401Z,5.72
2019-05-22T22:44:34.828Z,5.10
2019-05-22T22:47:07.055Z,4.67
2019-05-22T22:49:37.888Z,4.58
2019-05-22T22:52:08.883Z,3.92
2019-05-22T22:54:37.989Z,4.50
2019-05-22T22:57:09.269Z,3.95
2019-05-22T22:59:38.540Z,4.53
2019-05-22T23:02:11.617Z,4.28
2019-05-22T23:04:42.265Z,4.58
2019-05-22T23:07:11.849Z,4.30
2019-05-22T23:09:42.706Z,4.08
2019-05-22T23:12:12.843Z,3.95
2019-05-22T23:14:45.746Z,3.85
2019-05-22T23:17:15.106Z,4.20
2019-05-22T23:19:43.153Z,4.62
2019-05-22T23:22:12.711Z,4.37
2019-05-22T23:24:43.425Z,4.87
2019-05-22T23:27:13.589Z,4.10
2019-05-22T23:29:42.842Z,4.15
2019-05-22T23:32:14.040Z,3.87
2019-05-22T23:34:45.133Z,4.00
2019-05-22T23:37:14.943Z,4.53
2019-05-22T23:39:46.222Z,4.00
2019-05-22T23:42:18.965Z,3.98
2019-05-22T23:44:49.428Z,3.75
2019-05-22T23:47:19.095Z,4.28
2019-05-22T23:49:49.551Z,4.30
2019-05-22T23:52:18.710Z,4.30
2019-05-22T23:54:48.939Z,4.22
2019-05-22T23:57:18.444Z,4.05
2019-05-22T23:59:49.913Z,3.85
